sensor_id;sensor_type;location;lat;lon;timestamp;temperature;humidity
48535;DHT22;34323;52.022;5.686;2023-06-26T00:01:38;27.10;99.90
48535;DHT22;34323;52.022;5.686;2023-06-26T00:04:05;26.90;99.90
48535;DHT22;34323;52.022;5.686;2023-06-26T00:06:31;26.80;99.90
48535;DHT22;34323;52.022;5.686;2023-06-26T00:08:56;26.90;99.90
48535;DHT22;34323;52.022;5.686;2023-06-26T00:11:24;26.80;99.90
48535;DHT22;34323;52.022;5.686;2023-06-26T00:13:51;26.60;99.90
48535;DHT22;34323;52.022;5.686;2023-06-26T00:16:17;26.60;99.90
48535;DHT22;34323;52.022;5.686;2023-06-26T00:18:42;26.60;99.90
48535;DHT22;34323;52.022;5.686;2023-06-26T00:21:08;26.50;99.90
48535;DHT22;34323;52.022;5.686;2023-06-26T00:23:33;26.60;99.90
48535;DHT22;34323;52.022;5.686;2023-06-26T00:26:02;26.60;99.90
48535;DHT22;34323;52.022;5.686;2023-06-26T00:28:28;26.70;99.90
48535;DHT22;34323;52.022;5.686;2023-06-26T00:30:54;27.00;99.90
48535;DHT22;34323;52.022;5.686;2023-06-26T00:33:19;27.20;99.90
48535;DHT22;34323;52.022;5.686;2023-06-26T00:35:45;27.20;99.90
48535;DHT22;34323;52.022;5.686;2023-06-26T00:38:10;27.30;99.90
48535;DHT22;34323;52.022;5.686;2023-06-26T00:40:36;27.30;99.90
48535;DHT22;34323;52.022;5.686;2023-06-26T00:43:01;27.10;99.90
48535;DHT22;34323;52.022;5.686;2023-06-26T00:45:27;27.20;99.90
48535;DHT22;34323;52.022;5.686;2023-06-26T00:47:53;27.10;99.90
48535;DHT22;34323;52.022;5.686;2023-06-26T00:50:19;27.20;99.90
48535;DHT22;34323;52.022;5.686;2023-06-26T00:52:45;27.30;99.90
48535;DHT22;34323;52.022;5.686;2023-06-26T00:55:11;27.40;99.90
48535;DHT22;34323;52.022;5.686;2023-06-26T00:57:36;27.40;99.90
48535;DHT22;34323;52.022;5.686;2023-06-26T01:00:03;27.50;99.90
48535;DHT22;34323;52.022;5.686;2023-06-26T01:02:29;27.30;99.90
48535;DHT22;34323;52.022;5.686;2023-06-26T01:05:00;27.20;99.90
48535;DHT22;34323;52.022;5.686;2023-06-26T01:07:29;27.20;99.90
48535;DHT22;34323;52.022;5.686;2023-06-26T01:09:55;27.20;99.90
48535;DHT22;34323;52.022;5.686;2023-06-26T01:12:21;27.20;99.90
48535;DHT22;34323;52.022;5.686;2023-06-26T01:14:47;27.20;99.90
48535;DHT22;34323;52.022;5.686;2023-06-26T01:17:13;27.20;99.90
48535;DHT22;34323;52.022;5.686;2023-06-26T01:19:41;27.20;99.90
48535;DHT22;34323;52.022;5.686;2023-06-26T01:24:45;27.10;99.90
48535;DHT22;34323;52.022;5.686;2023-06-26T01:27:15;27.20;99.90
48535;DHT22;34323;52.022;5.686;2023-06-26T01:29:42;27.30;99.90
48535;DHT22;34323;52.022;5.686;2023-06-26T01:32:12;27.50;99.90
48535;DHT22;34323;52.022;5.686;2023-06-26T01:34:38;27.60;99.90
48535;DHT22;34323;52.022;5.686;2023-06-26T01:37:04;27.70;99.90
48535;DHT22;34323;52.022;5.686;2023-06-26T01:39:29;27.60;99.90
48535;DHT22;34323;52.022;5.686;2023-06-26T01:41:55;27.40;99.90
48535;DHT22;34323;52.022;5.686;2023-06-26T01:44:29;27.40;99.90
48535;DHT22;34323;52.022;5.686;2023-06-26T01:47:00;27.20;99.90
48535;DHT22;34323;52.022;5.686;2023-06-26T01:49:49;27.10;99.90
48535;DHT22;34323;52.022;5.686;2023-06-26T01:52:41;27.30;99.90
48535;DHT22;34323;52.022;5.686;2023-06-26T01:57:37;27.30;99.90
48535;DHT22;34323;52.022;5.686;2023-06-26T02:00:03;27.30;99.90
48535;DHT22;34323;52.022;5.686;2023-06-26T02:02:31;27.30;99.90
48535;DHT22;34323;52.022;5.686;2023-06-26T02:04:56;27.10;99.90
48535;DHT22;34323;52.022;5.686;2023-06-26T02:07:22;26.60;99.90
48535;DHT22;34323;52.022;5.686;2023-06-26T02:09:47;26.70;99.90
48535;DHT22;34323;52.022;5.686;2023-06-26T02:12:13;27.00;99.90
48535;DHT22;34323;52.022;5.686;2023-06-26T02:14:39;27.00;99.90
48535;DHT22;34323;52.022;5.686;2023-06-26T02:17:04;27.20;99.90
48535;DHT22;34323;52.022;5.686;2023-06-26T02:19:30;27.30;99.90
48535;DHT22;34323;52.022;5.686;2023-06-26T02:21:56;27.30;99.90
48535;DHT22;34323;52.022;5.686;2023-06-26T02:24:21;27.30;99.90
48535;DHT22;34323;52.022;5.686;2023-06-26T02:26:47;26.90;99.90
48535;DHT22;34323;52.022;5.686;2023-06-26T02:29:14;26.70;99.90
48535;DHT22;34323;52.022;5.686;2023-06-26T02:31:40;26.70;99.90
48535;DHT22;34323;52.022;5.686;2023-06-26T02:34:05;26.80;99.90
48535;DHT22;34323;52.022;5.686;2023-06-26T02:36:31;27.00;99.90
48535;DHT22;34323;52.022;5.686;2023-06-26T02:38:57;26.90;99.90
48535;DHT22;34323;52.022;5.686;2023-06-26T02:41:22;26.90;99.90
48535;DHT22;34323;52.022;5.686;2023-06-26T02:43:48;26.50;99.90
48535;DHT22;34323;52.022;5.686;2023-06-26T02:46:13;26.40;99.90
48535;DHT22;34323;52.022;5.686;2023-06-26T02:48:39;26.00;99.90
48535;DHT22;34323;52.022;5.686;2023-06-26T02:51:06;26.20;99.90
48535;DHT22;34323;52.022;5.686;2023-06-26T02:53:32;26.40;99.90
48535;DHT22;34323;52.022;5.686;2023-06-26T02:55:57;26.30;99.90
48535;DHT22;34323;52.022;5.686;2023-06-26T02:58:23;26.40;99.90
48535;DHT22;34323;52.022;5.686;2023-06-26T03:00:49;26.60;99.90
48535;DHT22;34323;52.022;5.686;2023-06-26T03:03:14;26.70;99.90
48535;DHT22;34323;52.022;5.686;2023-06-26T03:05:40;27.00;99.90
48535;DHT22;34323;52.022;5.686;2023-06-26T03:08:05;27.20;99.90
48535;DHT22;34323;52.022;5.686;2023-06-26T03:10:31;26.90;99.90
48535;DHT22;34323;52.022;5.686;2023-06-26T03:12:57;26.60;99.90
48535;DHT22;34323;52.022;5.686;2023-06-26T03:15:22;26.60;99.90
48535;DHT22;34323;52.022;5.686;2023-06-26T03:17:48;26.80;99.90
48535;DHT22;34323;52.022;5.686;2023-06-26T03:20:13;26.70;99.90
48535;DHT22;34323;52.022;5.686;2023-06-26T03:22:39;26.60;99.90
48535;DHT22;34323;52.022;5.686;2023-06-26T03:25:05;26.50;99.90
48535;DHT22;34323;52.022;5.686;2023-06-26T03:27:30;26.40;99.90
48535;DHT22;34323;52.022;5.686;2023-06-26T03:29:56;26.20;99.90
48535;DHT22;34323;52.022;5.686;2023-06-26T03:32:21;25.90;99.90
48535;DHT22;34323;52.022;5.686;2023-06-26T03:34:47;25.60;99.90
48535;DHT22;34323;52.022;5.686;2023-06-26T03:37:12;25.60;99.90
48535;DHT22;34323;52.022;5.686;2023-06-26T03:39:38;25.60;99.90
48535;DHT22;34323;52.022;5.686;2023-06-26T03:42:04;25.80;99.90
48535;DHT22;34323;52.022;5.686;2023-06-26T03:44:29;26.00;99.90
48535;DHT22;34323;52.022;5.686;2023-06-26T03:46:55;26.00;99.90
48535;DHT22;34323;52.022;5.686;2023-06-26T03:49:20;25.80;99.90
48535;DHT22;34323;52.022;5.686;2023-06-26T03:51:46;25.70;99.90
48535;DHT22;34323;52.022;5.686;2023-06-26T03:54:12;25.70;99.90
48535;DHT22;34323;52.022;5.686;2023-06-26T03:56:37;25.80;99.90
48535;DHT22;34323;52.022;5.686;2023-06-26T03:59:03;26.00;99.90
48535;DHT22;34323;52.022;5.686;2023-06-26T04:01:29;25.70;99.90
48535;DHT22;34323;52.022;5.686;2023-06-26T04:03:54;25.50;99.90
48535;DHT22;34323;52.022;5.686;2023-06-26T04:06:20;25.40;99.90
48535;DHT22;34323;52.022;5.686;2023-06-26T04:08:46;25.40;99.90
48535;DHT22;34323;52.022;5.686;2023-06-26T04:11:11;25.50;99.90
48535;DHT22;34323;52.022;5.686;2023-06-26T04:13:37;25.40;99.90
48535;DHT22;34323;52.022;5.686;2023-06-26T04:16:02;25.70;99.90
48535;DHT22;34323;52.022;5.686;2023-06-26T04:18:29;25.80;99.90
48535;DHT22;34323;52.022;5.686;2023-06-26T04:21:12;25.60;99.90
48535;DHT22;34323;52.022;5.686;2023-06-26T04:23:38;25.60;99.90
48535;DHT22;34323;52.022;5.686;2023-06-26T04:26:04;25.70;99.90
48535;DHT22;34323;52.022;5.686;2023-06-26T04:28:33;25.60;99.90
48535;DHT22;34323;52.022;5.686;2023-06-26T04:31:01;25.70;99.90
48535;DHT22;34323;52.022;5.686;2023-06-26T04:33:27;25.60;99.90
48535;DHT22;34323;52.022;5.686;2023-06-26T04:35:53;25.70;99.90
48535;DHT22;34323;52.022;5.686;2023-06-26T04:38:19;25.70;99.90
48535;DHT22;34323;52.022;5.686;2023-06-26T04:40:45;25.80;99.90
48535;DHT22;34323;52.022;5.686;2023-06-26T04:43:10;25.80;99.90
48535;DHT22;34323;52.022;5.686;2023-06-26T04:45:36;25.60;99.90
48535;DHT22;34323;52.022;5.686;2023-06-26T04:48:02;25.60;99.90
48535;DHT22;34323;52.022;5.686;2023-06-26T04:50:28;25.60;99.90
48535;DHT22;34323;52.022;5.686;2023-06-26T04:52:55;25.40;99.90
48535;DHT22;34323;52.022;5.686;2023-06-26T04:55:20;25.30;99.90
48535;DHT22;34323;52.022;5.686;2023-06-26T04:57:47;25.40;99.90
48535;DHT22;34323;52.022;5.686;2023-06-26T05:00:13;25.60;99.90
48535;DHT22;34323;52.022;5.686;2023-06-26T05:02:39;25.90;99.90
48535;DHT22;34323;52.022;5.686;2023-06-26T05:05:05;25.90;99.90
48535;DHT22;34323;52.022;5.686;2023-06-26T05:07:30;26.00;99.90
48535;DHT22;34323;52.022;5.686;2023-06-26T05:09:56;26.00;99.90
48535;DHT22;34323;52.022;5.686;2023-06-26T05:12:21;26.00;99.90
48535;DHT22;34323;52.022;5.686;2023-06-26T05:14:47;25.80;99.90
48535;DHT22;34323;52.022;5.686;2023-06-26T05:17:15;25.70;99.90
48535;DHT22;34323;52.022;5.686;2023-06-26T05:19:41;25.50;99.90
48535;DHT22;34323;52.022;5.686;2023-06-26T05:22:07;25.50;99.90
48535;DHT22;34323;52.022;5.686;2023-06-26T05:24:36;25.50;99.90
48535;DHT22;34323;52.022;5.686;2023-06-26T05:27:03;25.30;99.90
48535;DHT22;34323;52.022;5.686;2023-06-26T05:29:30;25.30;99.90
48535;DHT22;34323;52.022;5.686;2023-06-26T05:31:57;25.30;99.90
48535;DHT22;34323;52.022;5.686;2023-06-26T05:34:23;25.40;99.90
48535;DHT22;34323;52.022;5.686;2023-06-26T05:36:51;25.50;99.90
48535;DHT22;34323;52.022;5.686;2023-06-26T05:39:17;25.50;99.90
48535;DHT22;34323;52.022;5.686;2023-06-26T05:41:46;25.50;99.90
48535;DHT22;34323;52.022;5.686;2023-06-26T05:44:11;25.30;99.90
48535;DHT22;34323;52.022;5.686;2023-06-26T05:46:38;25.20;99.90
48535;DHT22;34323;52.022;5.686;2023-06-26T05:49:03;25.00;99.90
48535;DHT22;34323;52.022;5.686;2023-06-26T05:51:29;24.90;99.90
48535;DHT22;34323;52.022;5.686;2023-06-26T05:53:55;24.80;99.90
48535;DHT22;34323;52.022;5.686;2023-06-26T05:56:21;24.90;99.90
48535;DHT22;34323;52.022;5.686;2023-06-26T05:58:47;24.90;99.90
48535;DHT22;34323;52.022;5.686;2023-06-26T06:01:13;24.80;99.90
48535;DHT22;34323;52.022;5.686;2023-06-26T06:03:39;24.60;99.90
48535;DHT22;34323;52.022;5.686;2023-06-26T06:06:05;24.80;99.90
48535;DHT22;34323;52.022;5.686;2023-06-26T06:08:30;24.80;99.90
48535;DHT22;34323;52.022;5.686;2023-06-26T06:10:56;25.10;99.90
48535;DHT22;34323;52.022;5.686;2023-06-26T06:13:22;24.90;99.90
48535;DHT22;34323;52.022;5.686;2023-06-26T06:15:47;24.90;99.90
48535;DHT22;34323;52.022;5.686;2023-06-26T06:18:13;25.00;99.90
48535;DHT22;34323;52.022;5.686;2023-06-26T06:20:38;25.00;99.90
48535;DHT22;34323;52.022;5.686;2023-06-26T06:23:04;25.10;99.90
48535;DHT22;34323;52.022;5.686;2023-06-26T06:25:29;25.40;99.90
48535;DHT22;34323;52.022;5.686;2023-06-26T06:27:55;25.30;99.90
48535;DHT22;34323;52.022;5.686;2023-06-26T06:30:21;25.10;99.90
48535;DHT22;34323;52.022;5.686;2023-06-26T06:32:46;25.00;99.90
48535;DHT22;34323;52.022;5.686;2023-06-26T06:35:17;25.30;99.90
48535;DHT22;34323;52.022;5.686;2023-06-26T06:37:42;24.90;99.90
48535;DHT22;34323;52.022;5.686;2023-06-26T06:40:09;25.00;99.90
48535;DHT22;34323;52.022;5.686;2023-06-26T06:42:36;25.10;99.90
48535;DHT22;34323;52.022;5.686;2023-06-26T06:45:04;25.00;99.90
48535;DHT22;34323;52.022;5.686;2023-06-26T06:47:33;25.20;99.90
48535;DHT22;34323;52.022;5.686;2023-06-26T06:50:00;25.10;99.90
48535;DHT22;34323;52.022;5.686;2023-06-26T06:52:36;25.00;99.90
48535;DHT22;34323;52.022;5.686;2023-06-26T06:55:02;25.10;99.90
48535;DHT22;34323;52.022;5.686;2023-06-26T06:57:34;25.10;99.90
48535;DHT22;34323;52.022;5.686;2023-06-26T07:00:04;24.90;99.90
48535;DHT22;34323;52.022;5.686;2023-06-26T07:02:30;24.90;99.90
48535;DHT22;34323;52.022;5.686;2023-06-26T07:04:55;25.00;99.90
48535;DHT22;34323;52.022;5.686;2023-06-26T07:07:21;25.00;99.90
48535;DHT22;34323;52.022;5.686;2023-06-26T07:09:46;25.00;99.90
48535;DHT22;34323;52.022;5.686;2023-06-26T07:12:12;24.80;99.90
48535;DHT22;34323;52.022;5.686;2023-06-26T07:14:39;24.80;99.90
48535;DHT22;34323;52.022;5.686;2023-06-26T07:17:05;25.10;99.90
48535;DHT22;34323;52.022;5.686;2023-06-26T07:19:30;25.30;99.90
48535;DHT22;34323;52.022;5.686;2023-06-26T07:21:56;25.50;99.90
48535;DHT22;34323;52.022;5.686;2023-06-26T07:24:21;25.80;99.90
48535;DHT22;34323;52.022;5.686;2023-06-26T07:26:47;26.10;99.90
48535;DHT22;34323;52.022;5.686;2023-06-26T07:29:12;25.80;99.90
48535;DHT22;34323;52.022;5.686;2023-06-26T07:31:38;26.00;99.90
48535;DHT22;34323;52.022;5.686;2023-06-26T07:34:03;25.80;99.90
48535;DHT22;34323;52.022;5.686;2023-06-26T07:36:29;25.50;99.90
48535;DHT22;34323;52.022;5.686;2023-06-26T07:38:54;25.60;99.90
48535;DHT22;34323;52.022;5.686;2023-06-26T07:41:20;25.50;99.90
48535;DHT22;34323;52.022;5.686;2023-06-26T07:43:45;25.50;99.90
48535;DHT22;34323;52.022;5.686;2023-06-26T07:46:11;25.60;99.90
48535;DHT22;34323;52.022;5.686;2023-06-26T07:48:36;25.80;99.90
48535;DHT22;34323;52.022;5.686;2023-06-26T07:51:02;26.00;99.90
48535;DHT22;34323;52.022;5.686;2023-06-26T07:53:28;26.00;99.90
48535;DHT22;34323;52.022;5.686;2023-06-26T07:55:53;26.00;99.90
48535;DHT22;34323;52.022;5.686;2023-06-26T07:58:19;25.70;99.90
48535;DHT22;34323;52.022;5.686;2023-06-26T08:00:44;25.80;99.90
48535;DHT22;34323;52.022;5.686;2023-06-26T08:03:10;26.00;99.90
48535;DHT22;34323;52.022;5.686;2023-06-26T08:05:35;26.50;99.90
48535;DHT22;34323;52.022;5.686;2023-06-26T08:08:01;26.50;99.90
48535;DHT22;34323;52.022;5.686;2023-06-26T08:10:28;26.60;99.90
48535;DHT22;34323;52.022;5.686;2023-06-26T08:12:54;26.60;99.90
48535;DHT22;34323;52.022;5.686;2023-06-26T08:15:20;26.50;99.90
48535;DHT22;34323;52.022;5.686;2023-06-26T08:17:46;26.40;99.90
48535;DHT22;34323;52.022;5.686;2023-06-26T08:20:12;26.40;99.90
48535;DHT22;34323;52.022;5.686;2023-06-26T08:22:38;26.50;99.90
48535;DHT22;34323;52.022;5.686;2023-06-26T08:25:03;26.50;99.90
48535;DHT22;34323;52.022;5.686;2023-06-26T08:27:31;26.30;99.90
48535;DHT22;34323;52.022;5.686;2023-06-26T08:29:57;26.70;99.90
48535;DHT22;34323;52.022;5.686;2023-06-26T08:32:22;26.40;99.90
48535;DHT22;34323;52.022;5.686;2023-06-26T08:34:48;26.40;99.90
48535;DHT22;34323;52.022;5.686;2023-06-26T08:37:13;26.50;99.90
48535;DHT22;34323;52.022;5.686;2023-06-26T08:39:39;26.50;99.90
48535;DHT22;34323;52.022;5.686;2023-06-26T08:42:04;26.40;99.90
48535;DHT22;34323;52.022;5.686;2023-06-26T08:44:30;26.60;99.90
48535;DHT22;34323;52.022;5.686;2023-06-26T08:46:58;26.60;99.90
48535;DHT22;34323;52.022;5.686;2023-06-26T08:49:41;26.50;99.90
48535;DHT22;34323;52.022;5.686;2023-06-26T08:52:36;26.50;99.90
48535;DHT22;34323;52.022;5.686;2023-06-26T08:55:03;26.40;99.90
48535;DHT22;34323;52.022;5.686;2023-06-26T08:57:32;26.50;99.90
48535;DHT22;34323;52.022;5.686;2023-06-26T08:59:58;26.90;99.90
48535;DHT22;34323;52.022;5.686;2023-06-26T09:02:23;27.00;99.90
48535;DHT22;34323;52.022;5.686;2023-06-26T09:04:50;26.60;99.90
48535;DHT22;34323;52.022;5.686;2023-06-26T09:07:16;26.80;99.90
48535;DHT22;34323;52.022;5.686;2023-06-26T09:09:42;27.20;99.90
48535;DHT22;34323;52.022;5.686;2023-06-26T09:12:09;27.60;99.90
48535;DHT22;34323;52.022;5.686;2023-06-26T09:14:36;27.80;99.90
48535;DHT22;34323;52.022;5.686;2023-06-26T09:17:01;27.70;99.90
48535;DHT22;34323;52.022;5.686;2023-06-26T09:19:27;27.90;99.90
48535;DHT22;34323;52.022;5.686;2023-06-26T09:21:54;28.00;99.90
48535;DHT22;34323;52.022;5.686;2023-06-26T09:24:21;28.10;99.90
48535;DHT22;34323;52.022;5.686;2023-06-26T09:26:47;28.00;99.90
48535;DHT22;34323;52.022;5.686;2023-06-26T09:29:14;27.80;99.90
48535;DHT22;34323;52.022;5.686;2023-06-26T09:31:40;27.50;99.90
48535;DHT22;34323;52.022;5.686;2023-06-26T09:34:06;27.50;99.90
48535;DHT22;34323;52.022;5.686;2023-06-26T09:36:32;27.80;99.90
48535;DHT22;34323;52.022;5.686;2023-06-26T09:39:03;27.60;99.90
48535;DHT22;34323;52.022;5.686;2023-06-26T09:41:30;27.30;99.90
48535;DHT22;34323;52.022;5.686;2023-06-26T09:43:58;27.20;99.90
48535;DHT22;34323;52.022;5.686;2023-06-26T09:46:30;27.10;99.90
48535;DHT22;34323;52.022;5.686;2023-06-26T09:49:08;27.30;99.90
48535;DHT22;34323;52.022;5.686;2023-06-26T09:51:35;27.50;99.90
48535;DHT22;34323;52.022;5.686;2023-06-26T09:54:01;27.60;99.90
48535;DHT22;34323;52.022;5.686;2023-06-26T09:56:28;28.00;99.90
48535;DHT22;34323;52.022;5.686;2023-06-26T09:58:59;27.70;99.90
48535;DHT22;34323;52.022;5.686;2023-06-26T10:01:25;27.70;99.90
48535;DHT22;34323;52.022;5.686;2023-06-26T10:03:51;27.90;99.90
48535;DHT22;34323;52.022;5.686;2023-06-26T10:08:53;27.90;99.90
48535;DHT22;34323;52.022;5.686;2023-06-26T10:11:21;28.00;99.90
48535;DHT22;34323;52.022;5.686;2023-06-26T10:13:50;28.00;99.90
48535;DHT22;34323;52.022;5.686;2023-06-26T10:16:26;27.90;99.90
48535;DHT22;34323;52.022;5.686;2023-06-26T10:18:57;27.70;99.90
48535;DHT22;34323;52.022;5.686;2023-06-26T10:21:26;27.40;99.90
48535;DHT22;34323;52.022;5.686;2023-06-26T10:23:56;27.10;99.90
48535;DHT22;34323;52.022;5.686;2023-06-26T10:26:21;27.10;99.90
48535;DHT22;34323;52.022;5.686;2023-06-26T10:28:48;27.10;99.70
48535;DHT22;34323;52.022;5.686;2023-06-26T10:31:19;26.70;99.80
48535;DHT22;34323;52.022;5.686;2023-06-26T10:33:48;26.60;99.90
48535;DHT22;34323;52.022;5.686;2023-06-26T10:36:28;26.60;99.90
48535;DHT22;34323;52.022;5.686;2023-06-26T10:38:59;27.20;99.90
48535;DHT22;34323;52.022;5.686;2023-06-26T10:41:27;27.40;99.90
48535;DHT22;34323;52.022;5.686;2023-06-26T10:46:24;27.90;99.90
48535;DHT22;34323;52.022;5.686;2023-06-26T10:48:59;27.90;99.90
48535;DHT22;34323;52.022;5.686;2023-06-26T10:51:28;28.20;99.20
48535;DHT22;34323;52.022;5.686;2023-06-26T10:53:55;28.60;99.90
48535;DHT22;34323;52.022;5.686;2023-06-26T10:56:25;28.80;99.90
48535;DHT22;34323;52.022;5.686;2023-06-26T10:59:16;28.60;99.50
48535;DHT22;34323;52.022;5.686;2023-06-26T11:01:44;28.20;98.60
48535;DHT22;34323;52.022;5.686;2023-06-26T11:04:10;27.80;99.20
48535;DHT22;34323;52.022;5.686;2023-06-26T11:06:36;27.50;99.70
48535;DHT22;34323;52.022;5.686;2023-06-26T11:14:18;27.40;99.90
48535;DHT22;34323;52.022;5.686;2023-06-26T11:16:44;27.80;98.80
48535;DHT22;34323;52.022;5.686;2023-06-26T11:19:10;27.80;98.70
48535;DHT22;34323;52.022;5.686;2023-06-26T11:21:39;28.20;98.50
48535;DHT22;34323;52.022;5.686;2023-06-26T11:24:06;28.40;98.40
48535;DHT22;34323;52.022;5.686;2023-06-26T11:26:38;28.50;98.50
48535;DHT22;34323;52.022;5.686;2023-06-26T11:29:04;28.60;98.50
48535;DHT22;34323;52.022;5.686;2023-06-26T11:31:31;28.80;99.00
48535;DHT22;34323;52.022;5.686;2023-06-26T11:34:04;28.70;99.00
48535;DHT22;34323;52.022;5.686;2023-06-26T11:36:31;28.40;99.40
48535;DHT22;34323;52.022;5.686;2023-06-26T11:38:57;28.60;98.50
48535;DHT22;34323;52.022;5.686;2023-06-26T11:41:26;28.50;98.00
48535;DHT22;34323;52.022;5.686;2023-06-26T11:43:52;28.70;98.70
48535;DHT22;34323;52.022;5.686;2023-06-26T11:46:20;28.60;98.90
48535;DHT22;34323;52.022;5.686;2023-06-26T11:48:46;28.50;99.20
48535;DHT22;34323;52.022;5.686;2023-06-26T11:51:15;28.30;99.00
48535;DHT22;34323;52.022;5.686;2023-06-26T11:53:42;28.30;99.50
48535;DHT22;34323;52.022;5.686;2023-06-26T11:56:09;28.30;99.40
48535;DHT22;34323;52.022;5.686;2023-06-26T11:58:35;28.30;99.20
48535;DHT22;34323;52.022;5.686;2023-06-26T12:01:01;28.20;98.90
48535;DHT22;34323;52.022;5.686;2023-06-26T12:03:29;28.20;99.80
48535;DHT22;34323;52.022;5.686;2023-06-26T12:05:55;28.00;99.10
48535;DHT22;34323;52.022;5.686;2023-06-26T12:08:21;28.10;98.60
48535;DHT22;34323;52.022;5.686;2023-06-26T12:10:47;28.20;98.80
48535;DHT22;34323;52.022;5.686;2023-06-26T12:13:13;27.90;98.10
48535;DHT22;34323;52.022;5.686;2023-06-26T12:15:38;27.90;98.40
48535;DHT22;34323;52.022;5.686;2023-06-26T12:18:10;27.80;98.50
48535;DHT22;34323;52.022;5.686;2023-06-26T12:20:40;28.10;98.70
48535;DHT22;34323;52.022;5.686;2023-06-26T12:23:12;28.30;98.70
48535;DHT22;34323;52.022;5.686;2023-06-26T12:25:37;28.40;98.90
48535;DHT22;34323;52.022;5.686;2023-06-26T12:28:03;28.60;98.60
48535;DHT22;34323;52.022;5.686;2023-06-26T12:30:29;28.90;98.30
48535;DHT22;34323;52.022;5.686;2023-06-26T12:32:54;28.70;98.30
48535;DHT22;34323;52.022;5.686;2023-06-26T12:35:21;28.50;98.70
48535;DHT22;34323;52.022;5.686;2023-06-26T12:37:47;28.60;98.60
48535;DHT22;34323;52.022;5.686;2023-06-26T12:40:19;28.20;98.70
48535;DHT22;34323;52.022;5.686;2023-06-26T12:42:47;27.90;98.90
48535;DHT22;34323;52.022;5.686;2023-06-26T12:45:14;27.70;98.30
48535;DHT22;34323;52.022;5.686;2023-06-26T12:47:39;27.30;98.70
48535;DHT22;34323;52.022;5.686;2023-06-26T12:50:07;27.40;98.60
48535;DHT22;34323;52.022;5.686;2023-06-26T12:52:33;27.60;98.70
48535;DHT22;34323;52.022;5.686;2023-06-26T12:54:59;28.00;98.50
48535;DHT22;34323;52.022;5.686;2023-06-26T12:57:25;28.20;98.10
48535;DHT22;34323;52.022;5.686;2023-06-26T12:59:51;28.30;98.90
48535;DHT22;34323;52.022;5.686;2023-06-26T13:02:17;28.50;97.80
48535;DHT22;34323;52.022;5.686;2023-06-26T13:04:42;28.40;97.20
48535;DHT22;34323;52.022;5.686;2023-06-26T13:07:10;28.30;97.80
48535;DHT22;34323;52.022;5.686;2023-06-26T13:09:36;28.20;97.60
48535;DHT22;34323;52.022;5.686;2023-06-26T13:12:02;28.00;97.40
48535;DHT22;34323;52.022;5.686;2023-06-26T13:14:32;28.00;97.20
48535;DHT22;34323;52.022;5.686;2023-06-26T13:16:58;28.20;97.40
48535;DHT22;34323;52.022;5.686;2023-06-26T13:19:23;28.30;97.40
48535;DHT22;34323;52.022;5.686;2023-06-26T13:21:49;28.40;97.50
48535;DHT22;34323;52.022;5.686;2023-06-26T13:24:14;28.70;97.70
48535;DHT22;34323;52.022;5.686;2023-06-26T13:26:41;28.50;97.00
48535;DHT22;34323;52.022;5.686;2023-06-26T13:29:06;28.20;96.70
48535;DHT22;34323;52.022;5.686;2023-06-26T13:31:32;27.50;96.90
48535;DHT22;34323;52.022;5.686;2023-06-26T13:33:59;27.80;96.80
48535;DHT22;34323;52.022;5.686;2023-06-26T13:36:24;28.20;96.90
48535;DHT22;34323;52.022;5.686;2023-06-26T13:38:50;28.40;97.70
48535;DHT22;34323;52.022;5.686;2023-06-26T13:41:24;28.70;97.20
48535;DHT22;34323;52.022;5.686;2023-06-26T13:43:50;29.20;96.80
48535;DHT22;34323;52.022;5.686;2023-06-26T13:46:16;29.50;96.40
48535;DHT22;34323;52.022;5.686;2023-06-26T13:48:43;29.50;96.80
48535;DHT22;34323;52.022;5.686;2023-06-26T13:51:08;30.00;95.40
48535;DHT22;34323;52.022;5.686;2023-06-26T13:53:34;30.40;95.70
48535;DHT22;34323;52.022;5.686;2023-06-26T13:55:59;31.00;95.60
48535;DHT22;34323;52.022;5.686;2023-06-26T13:58:25;30.50;95.30
48535;DHT22;34323;52.022;5.686;2023-06-26T14:00:52;30.30;95.20
48535;DHT22;34323;52.022;5.686;2023-06-26T14:03:18;30.60;95.00
48535;DHT22;34323;52.022;5.686;2023-06-26T14:05:44;31.00;95.10
48535;DHT22;34323;52.022;5.686;2023-06-26T14:08:10;31.60;94.70
48535;DHT22;34323;52.022;5.686;2023-06-26T14:10:36;31.40;94.70
48535;DHT22;34323;52.022;5.686;2023-06-26T14:13:03;31.00;94.60
48535;DHT22;34323;52.022;5.686;2023-06-26T14:15:29;30.50;94.80
48535;DHT22;34323;52.022;5.686;2023-06-26T14:17:55;30.20;95.00
48535;DHT22;34323;52.022;5.686;2023-06-26T14:20:21;30.10;95.10
48535;DHT22;34323;52.022;5.686;2023-06-26T14:22:48;29.80;95.00
48535;DHT22;34323;52.022;5.686;2023-06-26T14:25:14;29.70;95.20
48535;DHT22;34323;52.022;5.686;2023-06-26T14:27:40;30.10;95.40
48535;DHT22;34323;52.022;5.686;2023-06-26T14:30:07;30.30;95.80
48535;DHT22;34323;52.022;5.686;2023-06-26T14:32:33;30.10;95.90
48535;DHT22;34323;52.022;5.686;2023-06-26T14:34:58;29.90;95.50
48535;DHT22;34323;52.022;5.686;2023-06-26T14:37:25;29.60;95.30
48535;DHT22;34323;52.022;5.686;2023-06-26T14:39:51;29.80;95.80
48535;DHT22;34323;52.022;5.686;2023-06-26T14:42:17;30.00;96.30
48535;DHT22;34323;52.022;5.686;2023-06-26T14:44:42;30.10;95.80
48535;DHT22;34323;52.022;5.686;2023-06-26T14:47:08;30.00;95.00
48535;DHT22;34323;52.022;5.686;2023-06-26T14:49:34;29.90;95.10
48535;DHT22;34323;52.022;5.686;2023-06-26T14:51:59;29.70;95.30
48535;DHT22;34323;52.022;5.686;2023-06-26T14:54:25;29.50;95.70
48535;DHT22;34323;52.022;5.686;2023-06-26T14:56:51;29.70;95.70
48535;DHT22;34323;52.022;5.686;2023-06-26T14:59:16;29.80;95.20
48535;DHT22;34323;52.022;5.686;2023-06-26T15:01:42;29.40;95.30
48535;DHT22;34323;52.022;5.686;2023-06-26T15:04:07;29.00;95.60
48535;DHT22;34323;52.022;5.686;2023-06-26T15:06:33;29.10;95.90
48535;DHT22;34323;52.022;5.686;2023-06-26T15:08:59;29.30;95.50
48535;DHT22;34323;52.022;5.686;2023-06-26T15:11:25;29.40;95.30
48535;DHT22;34323;52.022;5.686;2023-06-26T15:13:51;29.40;95.70
48535;DHT22;34323;52.022;5.686;2023-06-26T15:16:16;29.40;95.20
48535;DHT22;34323;52.022;5.686;2023-06-26T15:18:42;28.90;95.10
48535;DHT22;34323;52.022;5.686;2023-06-26T15:21:08;28.40;95.80
48535;DHT22;34323;52.022;5.686;2023-06-26T15:23:34;27.70;96.10
48535;DHT22;34323;52.022;5.686;2023-06-26T15:26:00;27.40;95.50
48535;DHT22;34323;52.022;5.686;2023-06-26T15:28:25;27.00;96.10
48535;DHT22;34323;52.022;5.686;2023-06-26T15:30:51;27.20;95.60
48535;DHT22;34323;52.022;5.686;2023-06-26T15:33:16;27.60;95.90
48535;DHT22;34323;52.022;5.686;2023-06-26T15:35:42;28.10;95.80
48535;DHT22;34323;52.022;5.686;2023-06-26T15:38:07;28.20;95.80
48535;DHT22;34323;52.022;5.686;2023-06-26T15:40:33;28.00;96.00
48535;DHT22;34323;52.022;5.686;2023-06-26T15:42:58;28.10;96.00